Sublime, Texas
Current Conditions -  °F | °C
As of 1:55 PM on Friday 24 Oct 2014 (Local Time) from K66R Reporting Station
Clear Clear  
Wind Chill: 81°   Ceiling: Unl
Heat Index: 81°   Visibility: 10mi
Dew Point: 56°   Wind: 6mph
Humidity: 43%   Direction: 40°NE
Pressure: 30.12"   Gusts: NA
Location:  29.48°N, 96.8°W
Report Text: K66R 241855Z AUTO 04005KT 10SM CLR 27/14 A3012 RMK AO2 T02700135
Loading
Personal Weather Stations






























Interactive Weather Map New forecast layout! Learn more

10-Day Weather Forecast

Advertisements
Track Severe Weather on mobile